Simbury, Connecticut
Current Conditions -  °F | °C
As of 8:51 AM on Wednesday 26 Nov 2014 (Local Time) from KBDL Reporting Station
Ice Pellets Ice Pellets  
Wind Chill: 38°   Ceiling: 3800
Heat Index: 42°   Visibility: 10mi
Dew Point: 29°   Wind: 6mph
Humidity: 60%   Direction: 30°NNE
Pressure: 30.16"   Gusts: NA
Location:  41.8901°N, 72.8259°W
Report Text: KBDL 261351Z 03005KT 10SM -PLRA OVC038 06/M02 A3016 RMK AO2 RAB45PLB47 SLP213 P0000 T00561017
Loading
Personal Weather Stations






























Interactive Weather Map New forecast layout! Learn more

10-Day Weather Forecast

Advertisements
Track Severe Weather on mobile